Time;durP1;ratioP1;P1;durP2;ratioP2;P2;SDS_P1;SDS_P2;PMS_P1;PMS_P2;Temp;Humidity;BMP_temperature;BMP_pressure;BME280_temperature;BME280_humidity;BME280_pressure;Samples;Min_cycle;Max_cycle;Signal;HPM_P1;HPM_P2
2022/09/25 00:00:42;;;;;;;19.33;3.20;;;;;;;10.68;96.30;101585.31;4984978;28;20034;-38
2022/09/25 00:03:09;;;;;;;9.75;2.28;;;;;;;10.72;96.32;101594.78;4994577;28;20034;-38
2022/09/25 00:05:35;;;;;;;22.73;3.05;;;;;;;10.79;96.07;101591.41;4994834;28;20026;-37
2022/09/25 00:08:02;;;;;;;9.20;2.65;;;;;;;10.79;95.82;101596.78;4993937;28;20070;-38
2022/09/25 00:10:28;;;;;;;11.65;2.50;;;;;;;10.80;95.52;101601.19;4994255;28;20108;-39
2022/09/25 00:12:53;;;;;;;13.05;2.55;;;;;;;10.85;95.43;101590.75;4994826;28;20041;-38
2022/09/25 00:15:19;;;;;;;17.65;2.72;;;;;;;10.87;95.34;101588.72;4995122;28;20093;-38
2022/09/25 00:17:44;;;;;;;10.75;3.90;;;;;;;10.87;95.02;101600.34;4994268;28;20118;-39
2022/09/25 00:20:10;;;;;;;14.48;2.22;;;;;;;10.92;94.64;101591.78;4972996;28;20031;-38
2022/09/25 00:22:35;;;;;;;9.05;2.78;;;;;;;10.94;94.14;101593.28;4974536;28;20027;-38
2022/09/25 00:25:01;;;;;;;18.27;2.70;;;;;;;10.98;93.74;101596.50;4974861;28;20351;-38
2022/09/25 00:27:26;;;;;;;17.20;2.63;;;;;;;11.00;93.31;101591.78;4977265;28;20041;-38
2022/09/25 00:29:52;;;;;;;16.70;2.38;;;;;;;11.01;92.97;101595.34;4993624;28;20466;-38
2022/09/25 00:32:17;;;;;;;8.90;2.50;;;;;;;10.99;92.80;101599.03;4993374;28;20490;-40
2022/09/25 00:34:43;;;;;;;11.85;2.15;;;;;;;11.00;92.59;101594.47;4993682;28;20031;-38
2022/09/25 00:37:08;;;;;;;14.50;2.70;;;;;;;10.97;92.76;101594.81;4993653;28;20054;-38
2022/09/25 00:39:34;;;;;;;18.08;2.90;;;;;;;10.95;92.79;101588.75;4992840;28;20404;-39
2022/09/25 00:41:59;;;;;;;13.80;2.38;;;;;;;10.93;92.94;101594.31;4994300;28;20035;-38
2022/09/25 00:44:55;;;;;;;15.13;2.05;;;;;;;10.88;92.71;101585.06;4993912;28;20022;-38
2022/09/25 00:47:34;;;;;;;11.80;2.42;;;;;;;10.85;92.96;101588.03;4994479;28;20031;-39
2022/09/25 00:50:01;;;;;;;8.13;2.15;;;;;;;10.87;93.26;101584.19;4993172;28;20034;-38
2022/09/25 00:52:27;;;;;;;10.00;2.30;;;;;;;10.88;93.44;101590.44;4993960;28;20042;-38
2022/09/25 00:54:58;;;;;;;7.43;1.80;;;;;;;10.87;93.75;101584.19;4993389;28;20037;-38
2022/09/25 00:57:26;;;;;;;18.02;2.55;;;;;;;10.88;94.10;101593.97;4993389;28;20112;-39
2022/09/25 00:59:56;;;;;;;14.48;2.35;;;;;;;10.90;94.26;101599.16;4975805;28;20030;-39
2022/09/25 01:02:34;;;;;;;14.02;2.00;;;;;;;10.86;94.69;101592.44;4975560;28;20618;-39
2022/09/25 01:05:04;;;;;;;14.48;3.20;;;;;;;10.82;94.70;101586.56;4980285;28;20034;-39
2022/09/25 01:07:31;;;;;;;22.58;2.30;;;;;;;10.80;95.27;101590.44;4992643;28;20821;-38
2022/09/25 01:09:58;;;;;;;9.40;2.13;;;;;;;10.74;95.43;101590.06;4993876;28;20504;-38
2022/09/25 01:12:24;;;;;;;11.73;2.55;;;;;;;10.71;95.40;101592.22;4994147;28;20030;-39
2022/09/25 01:14:49;;;;;;;11.05;2.33;;;;;;;10.65;95.72;101585.66;4993371;28;20038;-38
2022/09/25 01:17:28;;;;;;;15.45;3.22;;;;;;;10.60;96.07;101590.69;4993563;28;20500;-37
2022/09/25 01:20:21;;;;;;;17.13;2.55;;;;;;;10.54;96.51;101594.88;4976132;28;20088;-39
2022/09/25 01:22:56;;;;;;;17.63;2.50;;;;;;;10.48;96.80;101597.41;4979359;28;20035;-38
2022/09/25 01:25:46;;;;;;;16.33;2.75;;;;;;;10.45;97.17;101597.69;4993475;28;20034;-38
2022/09/25 01:28:17;;;;;;;14.15;3.00;;;;;;;10.41;97.44;101604.44;4993325;28;20037;-38
2022/09/25 01:30:45;;;;;;;17.33;3.55;;;;;;;10.42;98.14;101588.09;4993353;28;20030;-40
2022/09/25 01:33:17;;;;;;;17.67;3.55;;;;;;;10.47;98.09;101587.63;4972467;28;20037;-38
2022/09/25 01:35:58;;;;;;;22.02;4.45;;;;;;;10.50;97.82;101592.69;4988910;28;20038;-39
2022/09/25 01:38:52;;;;;;;22.45;3.85;;;;;;;10.55;97.77;101590.34;4992332;28;20430;-39
2022/09/25 01:41:28;;;;;;;19.42;2.60;;;;;;;10.61;97.92;101589.69;4975127;28;20030;-38
2022/09/25 01:43:59;;;;;;;15.75;2.90;;;;;;;10.61;97.86;101584.31;4975764;28;20050;-40
2022/09/25 01:46:29;;;;;;;24.10;2.80;;;;;;;10.68;97.92;101595.25;4991460;28;20037;-38
2022/09/25 01:48:59;;;;;;;13.07;2.58;;;;;;;10.71;97.87;101597.63;4995623;28;20030;-40
2022/09/25 01:51:35;;;;;;;26.15;2.70;;;;;;;10.72;98.01;101602.84;4996687;28;20034;-39
2022/09/25 01:54:08;;;;;;;19.15;3.03;;;;;;;10.80;98.39;101606.56;4996659;28;20092;-39
2022/09/25 01:56:39;;;;;;;19.80;3.22;;;;;;;10.84;98.66;101605.22;4979618;28;20108;-40
2022/09/25 01:59:16;;;;;;;19.67;3.85;;;;;;;10.96;98.70;101606.59;4978949;28;20022;-39
2022/09/25 02:01:44;;;;;;;17.90;2.60;;;;;;;11.02;98.96;101597.84;4996235;28;20133;-39
2022/09/25 02:04:15;;;;;;;20.92;2.63;;;;;;;11.07;98.97;101595.50;4995786;28;20466;-37
2022/09/25 02:06:43;;;;;;;13.02;2.85;;;;;;;11.09;99.26;101587.28;4979719;28;20089;-40
2022/09/25 02:09:13;;;;;;;19.55;2.58;;;;;;;11.10;99.71;101584.38;4979224;28;20042;-39
2022/09/25 02:11:42;;;;;;;15.23;2.70;;;;;;;11.11;100.00;101586.09;4979085;28;20034;-40
2022/09/25 02:14:13;;;;;;;25.73;3.15;;;;;;;11.10;100.00;101586.25;4995889;28;20322;-40
2022/09/25 02:16:42;;;;;;;15.75;2.63;;;;;;;11.10;100.00;101586.25;4995345;28;20129;-40
2022/09/25 02:22:12;;;;;;;17.70;2.22;;;;;;;11.04;100.00;101593.16;4975522;28;20478;-39
2022/09/25 02:24:57;;;;;;;19.98;3.08;;;;;;;11.03;100.00;101594.13;4981804;28;20030;-40
2022/09/25 02:27:23;;;;;;;19.83;3.25;;;;;;;11.01;100.00;101590.78;4996134;28;20060;-40
2022/09/25 02:29:49;;;;;;;23.05;2.85;;;;;;;10.98;100.00;101591.13;4996094;28;20026;-39
2022/09/25 02:32:18;;;;;;;17.05;2.33;;;;;;;10.92;100.00;101597.16;4995980;28;20091;-38
2022/09/25 02:34:43;;;;;;;17.27;2.83;;;;;;;10.89;100.00;101600.19;4978613;28;20536;-39
2022/09/25 02:37:11;;;;;;;9.50;2.35;;;;;;;10.86;100.00;101603.22;4995663;28;20190;-39
2022/09/25 02:39:36;;;;;;;21.00;2.92;;;;;;;10.82;100.00;101597.34;4995798;28;20038;-39
2022/09/25 02:42:20;;;;;;;28.73;3.45;;;;;;;10.81;100.00;101601.00;4996295;28;20026;-38
2022/09/25 02:45:10;;;;;;;17.52;3.17;;;;;;;10.84;100.00;101589.06;4995794;28;20088;-39
2022/09/25 02:48:08;;;;;;;20.00;3.42;;;;;;;10.87;100.00;101591.44;4995477;28;20030;-40
2022/09/25 02:51:01;;;;;;;23.25;2.92;;;;;;;10.89;100.00;101600.19;4977914;28;20038;-40
2022/09/25 02:53:33;;;;;;;32.03;3.58;;;;;;;10.93;100.00;101596.16;4974631;28;20035;-39
2022/09/25 02:56:02;;;;;;;29.65;3.20;;;;;;;10.95;100.00;101607.59;4973665;28;20054;-39
2022/09/25 02:58:47;;;;;;;27.10;3.78;;;;;;;10.97;100.00;101613.66;4994143;28;20034;-39
2022/09/25 03:01:15;;;;;;;23.30;2.88;;;;;;;11.01;100.00;101622.28;4977205;28;20626;-39
2022/09/25 03:03:41;;;;;;;25.20;3.00;;;;;;;11.04;100.00;101628.16;4976977;28;20030;-39
2022/09/25 03:06:07;;;;;;;16.83;2.55;;;;;;;11.06;100.00;101618.06;4994248;28;20030;-38
2022/09/25 03:08:38;;;;;;;23.85;3.80;;;;;;;11.06;100.00;101618.06;4981312;28;20054;-40
2022/09/25 03:11:09;;;;;;;31.30;3.90;;;;;;;11.04;100.00;101620.09;4982266;28;20130;-35
2022/09/25 03:13:36;;;;;;;20.20;2.90;;;;;;;11.04;100.00;101622.78;4981425;28;20134;-38
2022/09/25 03:16:13;;;;;;;32.65;3.28;;;;;;;11.02;100.00;101619.41;4979996;28;20015;-40
2022/09/25 03:18:38;;;;;;;22.60;3.58;;;;;;;11.01;100.00;101623.13;4973596;28;20081;-40
2022/09/25 03:21:04;;;;;;;17.75;2.63;;;;;;;10.96;100.00;101620.91;4976351;28;20069;-39
2022/09/25 03:23:30;;;;;;;11.32;2.53;;;;;;;10.94;100.00;101608.63;4975385;28;20454;-42
2022/09/25 03:25:55;;;;;;;21.52;3.20;;;;;;;10.91;100.00;101612.47;4975255;28;20038;-44
2022/09/25 03:28:21;;;;;;;21.60;2.58;;;;;;;10.91;100.00;101619.72;4976713;28;20035;-42
2022/09/25 03:30:57;;;;;;;9.80;2.30;;;;;;;10.91;100.00;101619.72;4978438;28;20509;-40
2022/09/25 03:33:23;;;;;;;14.27;2.70;;;;;;;10.87;100.00;101605.72;4976391;28;20034;-40
2022/09/25 03:35:48;;;;;;;14.05;2.55;;;;;;;10.81;100.00;101601.00;4974039;28;20101;-40
2022/09/25 03:38:13;;;;;;;7.63;2.10;;;;;;;10.73;100.00;101604.53;4970021;28;20152;-39
2022/09/25 03:40:40;;;;;;;13.05;2.28;;;;;;;10.64;100.00;101605.53;4970479;28;20027;-39
2022/09/25 03:43:05;;;;;;;13.90;2.40;;;;;;;10.58;100.00;101599.94;4975876;28;20113;-39
2022/09/25 03:45:30;;;;;;;11.43;2.90;;;;;;;10.53;100.00;101600.41;4975621;28;20050;-37
2022/09/25 03:47:56;;;;;;;12.00;2.60;;;;;;;10.52;100.00;101596.06;4974229;28;20065;-38
2022/09/25 03:50:21;;;;;;;8.23;2.42;;;;;;;10.52;100.00;101593.34;4974780;28;20041;-38
2022/09/25 03:52:46;;;;;;;7.10;2.60;;;;;;;10.50;100.00;101593.50;4974826;28;20065;-38
2022/09/25 03:55:12;;;;;;;14.88;2.58;;;;;;;10.46;100.00;101592.16;4974944;28;20482;-38
2022/09/25 03:57:38;;;;;;;10.00;2.50;;;;;;;10.46;100.00;101591.34;4974502;28;20061;-38
2022/09/25 04:00:04;;;;;;;14.90;2.20;;;;;;;10.48;100.00;101587.47;4974094;28;20122;-38
2022/09/25 04:02:30;;;;;;;10.25;3.00;;;;;;;10.46;100.00;101586.78;4975522;28;20494;-38
2022/09/25 04:04:55;;;;;;;19.58;2.42;;;;;;;10.47;100.00;101579.53;4975058;28;20054;-37
2022/09/25 04:07:21;;;;;;;15.20;2.60;;;;;;;10.46;100.00;101584.09;4977450;28;20133;-37
2022/09/25 04:09:47;;;;;;;6.43;2.33;;;;;;;10.44;100.00;101587.94;4994168;28;20030;-37
2022/09/25 04:12:12;;;;;;;15.50;2.90;;;;;;;10.41;100.00;101585.59;4992894;28;20725;-38
2022/09/25 04:14:37;;;;;;;12.13;2.92;;;;;;;10.36;100.00;101582.53;4993173;28;20034;-38
2022/09/25 04:17:03;;;;;;;8.32;2.58;;;;;;;10.29;100.00;101588.59;4993456;28;20049;-37
2022/09/25 04:19:28;;;;;;;10.35;2.92;;;;;;;10.23;100.00;101585.66;4993873;28;20045;-38
2022/09/25 04:21:54;;;;;;;14.15;2.88;;;;;;;10.18;100.00;101583.44;4972156;28;20042;-37
2022/09/25 04:27:04;;;;;;;8.45;2.90;;;;;;;10.06;100.00;101573.97;4983592;28;20045;-39
2022/09/25 04:29:30;;;;;;;10.73;3.08;;;;;;;10.01;100.00;101565.56;4993139;28;20042;-36
2022/09/25 04:35:00;;;;;;;12.80;2.97;;;;;;;9.88;100.00;101561.44;4970770;28;20122;-37
2022/09/25 04:37:26;;;;;;;6.78;3.17;;;;;;;9.86;100.00;101570.66;4970932;28;20873;-38
2022/09/25 04:39:55;;;;;;;16.25;3.50;;;;;;;9.85;100.00;101572.53;4980806;28;20078;-38
2022/09/25 04:42:23;;;;;;;5.47;3.17;;;;;;;9.86;100.00;101579.56;4976087;28;20026;-38
2022/09/25 04:44:50;;;;;;;13.25;4.10;;;;;;;9.91;100.00;101571.03;4993578;28;20030;-37
2022/09/25 04:47:15;;;;;;;12.30;3.50;;;;;;;9.95;100.00;101579.63;4993446;28;20038;-38
2022/09/25 04:49:40;;;;;;;16.65;4.30;;;;;;;9.99;100.00;101578.31;4993067;28;20191;-37
2022/09/25 04:52:06;;;;;;;17.00;4.55;;;;;;;10.05;100.00;101583.03;4993084;28;20033;-38
2022/09/25 04:54:31;;;;;;;14.73;4.32;;;;;;;10.08;100.00;101582.72;4993466;28;20072;-37
2022/09/25 04:56:56;;;;;;;21.40;4.65;;;;;;;10.10;100.00;101581.53;4990805;28;20045;-39
2022/09/25 04:59:22;;;;;;;13.65;4.22;;;;;;;10.10;100.00;101580.72;4990600;28;20045;-40
2022/09/25 05:01:47;;;;;;;17.73;4.65;;;;;;;10.11;100.00;101574.34;4990181;28;20117;-42
2022/09/25 05:04:14;;;;;;;17.80;5.38;;;;;;;10.15;100.00;101572.16;4973326;28;20484;-39
2022/09/25 05:06:40;;;;;;;14.75;4.63;;;;;;;10.17;100.00;101564.78;4988698;28;20514;-40
2022/09/25 05:09:05;;;;;;;19.77;4.45;;;;;;;10.19;100.00;101566.31;4987553;28;20050;-40
2022/09/25 05:11:31;;;;;;;15.80;3.88;;;;;;;10.20;100.00;101559.91;4988092;28;20109;-39
2022/09/25 05:13:56;;;;;;;20.02;4.38;;;;;;;10.23;100.00;101559.59;4988371;28;20042;-39
2022/09/25 05:16:22;;;;;;;14.63;4.05;;;;;;;10.25;100.00;101559.44;4988320;28;20029;-37
2022/09/25 05:18:47;;;;;;;14.95;4.28;;;;;;;10.25;100.00;101560.28;4991700;28;20058;-39
2022/09/25 05:21:13;;;;;;;17.80;4.25;;;;;;;10.28;100.00;101562.66;4992431;28;20473;-38
2022/09/25 05:23:38;;;;;;;28.77;6.00;;;;;;;10.29;100.00;101558.13;5009060;28;20545;-37
2022/09/25 05:26:03;;;;;;;19.77;4.97;;;;;;;10.29;100.00;101552.75;5017390;28;20038;-36
2022/09/25 05:28:30;;;;;;;14.43;4.80;;;;;;;10.27;100.00;101552.91;5000792;28;20394;-37
2022/09/25 05:30:58;;;;;;;24.35;5.40;;;;;;;10.26;100.00;101561.94;5001896;28;20034;-40
2022/09/25 05:33:24;;;;;;;24.75;6.22;;;;;;;10.21;100.00;101558.91;5002755;28;20132;-37
2022/09/25 05:35:49;;;;;;;16.65;4.97;;;;;;;10.19;100.00;101563.63;4979841;28;20130;-37
2022/09/25 05:38:14;;;;;;;18.25;5.10;;;;;;;10.17;100.00;101559.41;4995682;28;20054;-37
2022/09/25 05:40:40;;;;;;;22.30;5.75;;;;;;;10.16;100.00;101568.47;4995295;28;20042;-39
2022/09/25 05:43:06;;;;;;;22.60;6.55;;;;;;;10.14;100.00;101560.56;4996826;28;20046;-39
2022/09/25 05:45:33;;;;;;;16.30;6.57;;;;;;;10.14;100.00;101565.94;5000219;28;20042;-37
2022/09/25 05:48:01;;;;;;;23.93;7.87;;;;;;;10.15;100.00;101551.47;5000570;28;20057;-36
2022/09/25 05:50:27;;;;;;;21.40;6.60;;;;;;;10.17;100.00;101560.25;4998707;28;20072;-39
2022/09/25 05:53:00;;;;;;;23.83;7.10;;;;;;;10.18;100.00;101569.97;4997959;28;20034;-37
2022/09/25 05:55:26;;;;;;;20.65;6.43;;;;;;;10.24;100.00;101577.44;4995410;28;20068;-36
2022/09/25 05:57:51;;;;;;;14.68;5.70;;;;;;;10.31;100.00;101591.94;4983486;28;20096;-37
2022/09/25 06:00:17;;;;;;;14.80;4.40;;;;;;;10.39;100.00;101590.28;4997391;28;20023;-38
2022/09/25 06:02:42;;;;;;;17.75;4.18;;;;;;;10.53;100.00;101593.22;4995183;28;20042;-41
2022/09/25 06:05:08;;;;;;;15.05;3.45;;;;;;;10.51;100.00;101594.38;4977373;28;20026;-39
2022/09/25 06:07:35;;;;;;;12.77;3.10;;;;;;;10.45;100.00;101584.25;4993255;28;20054;-42
2022/09/25 06:10:00;;;;;;;13.20;2.33;;;;;;;10.39;100.00;101583.06;4992399;28;20114;-42
2022/09/25 06:12:28;;;;;;;20.60;2.55;;;;;;;10.38;100.00;101584.06;4998301;28;20128;-40
2022/09/25 06:14:53;;;;;;;9.98;2.47;;;;;;;10.33;100.00;101579.16;4997406;28;20026;-39
2022/09/25 06:17:19;;;;;;;18.92;3.17;;;;;;;10.35;100.00;101580.84;4996206;28;20124;-40
2022/09/25 06:19:44;;;;;;;12.45;2.28;;;;;;;10.35;100.00;101579.00;4983305;28;20054;-39
2022/09/25 06:22:10;;;;;;;17.17;3.33;;;;;;;10.37;100.00;101586.91;4986528;28;20019;-38
2022/09/25 06:24:35;;;;;;;14.30;3.40;;;;;;;10.41;100.00;101591.81;4997042;28;20256;-38
2022/09/25 06:27:00;;;;;;;12.35;2.83;;;;;;;10.43;100.00;101583.59;4997095;28;20045;-38
2022/09/25 06:29:26;;;;;;;12.88;3.30;;;;;;;10.45;100.00;101587.81;4998666;28;20026;-37
2022/09/25 06:31:52;;;;;;;21.02;4.30;;;;;;;10.49;100.00;101581.06;4998566;28;20470;-38
2022/09/25 06:34:18;;;;;;;15.38;3.40;;;;;;;10.52;100.00;101586.13;4996809;28;20062;-37
2022/09/25 06:36:43;;;;;;;11.98;3.05;;;;;;;10.57;100.00;101588.34;4996036;28;20026;-38
2022/09/25 06:39:09;;;;;;;13.00;3.13;;;;;;;10.61;100.00;101588.84;4996242;28;20049;-38
2022/09/25 06:41:35;;;;;;;12.15;3.47;;;;;;;10.64;100.00;101594.75;5001810;28;20034;-38
2022/09/25 06:44:00;;;;;;;15.95;3.30;;;;;;;10.69;100.00;101588.84;5017763;28;20026;-39
2022/09/25 06:46:26;;;;;;;8.70;3.75;;;;;;;10.71;100.00;101594.94;5016166;28;20105;-40
2022/09/25 06:48:53;;;;;;;18.75;3.65;;;;;;;10.75;100.00;101586.34;4996349;28;20057;-38
2022/09/25 06:51:18;;;;;;;12.45;5.32;;;;;;;10.81;100.00;101589.41;4996637;28;20098;-38
2022/09/25 06:53:44;;;;;;;22.27;4.00;;;;;;;10.87;100.00;101583.34;4996549;28;20066;-39
2022/09/25 06:56:09;;;;;;;19.13;4.43;;;;;;;10.93;100.00;101580.00;4997170;28;20117;-38
2022/09/25 06:58:34;;;;;;;16.95;5.03;;;;;;;11.00;100.00;101583.69;4995555;28;20114;-37
2022/09/25 07:01:00;;;;;;;17.30;4.47;;;;;;;11.08;100.00;101582.88;4996622;28;20434;-38
2022/09/25 07:03:43;;;;;;;14.60;4.35;;;;;;;11.14;100.00;101585.75;4995253;28;20018;-37
2022/09/25 07:06:11;;;;;;;22.13;4.93;;;;;;;11.24;100.00;101590.94;4996930;28;20038;-39
2022/09/25 07:08:36;;;;;;;15.80;4.30;;;;;;;11.31;100.00;101591.13;4997289;28;20049;-38
2022/09/25 07:11:02;;;;;;;20.08;5.00;;;;;;;11.41;100.00;101587.25;4997444;28;20031;-39
2022/09/25 07:13:30;;;;;;;22.55;5.28;;;;;;;11.51;100.00;101581.69;4996631;28;20345;-38
2022/09/25 07:15:58;;;;;;;18.58;4.72;;;;;;;11.55;100.00;101583.03;4997905;28;20030;-38
2022/09/25 07:18:24;;;;;;;14.10;5.32;;;;;;;11.61;100.00;101587.75;4996337;28;20081;-38
2022/09/25 07:20:50;;;;;;;17.92;5.20;;;;;;;11.67;100.00;101593.47;4997318;28;20037;-38
2022/09/25 07:23:17;;;;;;;24.70;5.78;;;;;;;11.79;100.00;101592.09;4996737;28;20063;-38
2022/09/25 07:25:45;;;;;;;27.70;5.25;;;;;;;11.89;100.00;101591.94;4997133;28;20026;-39
2022/09/25 07:28:13;;;;;;;22.52;5.75;;;;;;;12.00;100.00;101595.09;4997451;28;20026;-38
2022/09/25 07:30:42;;;;;;;22.52;5.53;;;;;;;12.14;100.00;101595.41;4997232;28;20264;-38
2022/09/25 07:33:08;;;;;;;32.55;5.78;;;;;;;12.25;100.00;101598.59;4996928;28;20022;-39
2022/09/25 07:35:34;;;;;;;25.20;5.15;;;;;;;12.39;100.00;101597.00;4997111;28;20048;-39
2022/09/25 07:38:00;;;;;;;17.10;4.25;;;;;;;12.61;100.00;101594.53;4997529;28;20037;-38
2022/09/25 07:40:27;;;;;;;19.08;4.95;;;;;;;12.83;100.00;101596.44;4998016;28;20385;-37
2022/09/25 07:42:58;;;;;;;21.60;6.07;;;;;;;12.88;100.00;101596.75;4996815;28;20129;-38
2022/09/25 07:45:24;;;;;;;15.80;3.88;;;;;;;13.56;100.00;101596.91;4997442;28;20320;-39
2022/09/25 07:47:49;;;;;;;21.33;3.83;;;;;;;14.19;100.00;101600.16;4998108;28;20019;-38
2022/09/25 07:50:14;;;;;;;27.45;3.75;;;;;;;14.49;100.00;101593.69;4997300;28;20415;-39
2022/09/25 07:52:40;;;;;;;11.85;2.92;;;;;;;14.84;100.00;101601.22;4997673;28;20039;-38
2022/09/25 07:55:06;;;;;;;12.50;4.38;;;;;;;15.23;100.00;101591.81;4998031;28;20029;-39
2022/09/25 07:57:31;;;;;;;22.15;3.22;;;;;;;15.78;100.00;101579.34;4997195;28;20482;-38
2022/09/25 07:59:56;;;;;;;13.52;2.08;;;;;;;16.11;98.71;101579.53;4996627;28;20026;-39
2022/09/25 08:02:22;;;;;;;10.55;2.28;;;;;;;16.21;91.84;101576.47;4996575;28;20064;-39
2022/09/25 08:04:47;;;;;;;7.90;2.08;;;;;;;16.11;89.78;101581.41;4995372;28;20037;-39
2022/09/25 08:07:12;;;;;;;12.07;2.10;;;;;;;16.05;88.76;101588.50;4995950;28;20053;-39
2022/09/25 08:09:39;;;;;;;6.55;2.35;;;;;;;16.09;88.44;101580.78;4995500;28;20045;-39
2022/09/25 08:12:04;;;;;;;10.95;1.77;;;;;;;15.93;87.00;101582.78;4995718;28;20169;-39
2022/09/25 08:14:31;;;;;;;11.00;1.77;;;;;;;15.72;87.20;101591.00;4995843;28;20030;-39
2022/09/25 08:16:57;;;;;;;10.95;2.00;;;;;;;15.46;88.29;101588.88;4996040;28;20053;-39
2022/09/25 08:19:22;;;;;;;11.15;2.13;;;;;;;15.27;88.93;101590.38;4995597;28;20027;-39
2022/09/25 08:21:49;;;;;;;13.02;1.95;;;;;;;15.05;89.32;101587.66;4995718;28;20181;-40
2022/09/25 08:24:14;;;;;;;9.13;2.15;;;;;;;14.90;90.66;101587.75;4995734;28;20030;-39
2022/09/25 08:26:40;;;;;;;10.38;1.95;;;;;;;14.83;91.25;101589.53;4977338;28;20038;-39
2022/09/25 08:29:07;;;;;;;11.38;2.10;;;;;;;14.83;92.08;101589.53;4995703;28;20482;-39
2022/09/25 08:31:33;;;;;;;17.53;1.97;;;;;;;14.92;92.71;101584.81;4995533;28;20023;-39
2022/09/25 08:33:58;;;;;;;10.98;2.30;;;;;;;15.01;92.34;101583.69;4995572;28;20032;-38
2022/09/25 08:36:24;;;;;;;12.52;2.08;;;;;;;15.15;92.98;101590.06;4994709;28;20537;-39
2022/09/25 08:38:51;;;;;;;12.23;2.08;;;;;;;15.28;92.35;101592.91;4995143;28;20035;-39
2022/09/25 08:41:31;;;;;;;19.17;2.38;;;;;;;15.25;89.67;101585.16;4995266;28;20192;-38
2022/09/25 08:44:10;;;;;;;10.63;2.55;;;;;;;15.24;88.65;101586.16;4977902;28;20026;-39
2022/09/25 08:49:58;;;;;;;18.17;1.98;;;;;;;16.23;92.89;101579.81;4979538;28;20061;-39
2022/09/25 08:52:24;;;;;;;10.07;2.35;;;;;;;18.11;90.85;101575.25;4995177;28;20019;-39
2022/09/25 08:54:50;;;;;;;12.98;1.80;;;;;;;19.72;79.06;101581.44;4994816;28;20033;-39
2022/09/25 08:57:26;;;;;;;16.23;2.42;;;;;;;20.89;71.14;101575.88;4993933;28;20056;-39
2022/09/25 08:59:55;;;;;;;7.43;1.20;;;;;;;22.33;63.13;101585.66;4993521;28;20507;-38
2022/09/25 09:02:22;;;;;;;14.38;2.05;;;;;;;22.62;59.44;101583.78;4975969;28;20031;-39
2022/09/25 09:04:56;;;;;;;14.00;2.63;;;;;;;22.49;56.88;101578.59;4992393;28;20030;-38
2022/09/25 09:07:37;;;;;;;9.07;1.77;;;;;;;21.89;58.19;101585.22;4991360;28;20130;-38
2022/09/25 09:10:29;;;;;;;12.38;1.73;;;;;;;21.18;59.95;101576.09;4974884;28;20053;-39
2022/09/25 09:13:00;;;;;;;8.85;1.75;;;;;;;20.13;63.98;101572.63;4975257;28;20105;-38
2022/09/25 09:15:32;;;;;;;20.25;2.13;;;;;;;19.71;63.41;101574.31;4975122;28;20097;-38
2022/09/25 09:18:00;;;;;;;8.90;1.67;;;;;;;19.16;63.13;101577.69;4992564;28;20026;-38
2022/09/25 09:20:45;;;;;;;;;;;;;;;18.73;64.87;101570.19;4991848;28;20027;-39
2022/09/25 09:23:18;;;;;;;9.27;1.90;;;;;;;18.25;66.04;101569.78;4978474;28;19916;-38
2022/09/25 09:25:49;;;;;;;10.45;1.30;;;;;;;17.81;68.19;101572.19;4992277;28;20113;-38
2022/09/25 09:28:20;;;;;;;14.38;1.70;;;;;;;17.60;66.94;101570.50;4992488;28;20113;-38
2022/09/25 09:31:06;;;;;;;10.13;1.50;;;;;;;17.53;63.42;101573.22;4992857;28;20034;-38
2022/09/25 09:34:00;;;;;;;9.70;1.77;;;;;;;17.54;66.79;101574.09;4992873;28;20026;-38
2022/09/25 09:36:56;;;;;;;6.15;1.48;;;;;;;17.57;66.79;101579.09;4992114;28;20023;-39
2022/09/25 09:39:30;;;;;;;7.17;1.70;;;;;;;17.58;68.17;101575.31;4976726;28;20027;-38
2022/09/25 09:42:08;;;;;;;6.38;1.80;;;;;;;18.01;65.58;101579.47;4984235;28;20034;-37
2022/09/25 09:44:52;;;;;;;11.13;1.33;;;;;;;18.04;62.42;101576.34;4975812;28;20130;-40
2022/09/25 09:47:45;;;;;;;6.20;1.38;;;;;;;18.11;61.84;101585.31;4979164;28;20153;-37
2022/09/25 09:50:24;;;;;;;11.27;1.75;;;;;;;18.51;60.20;101580.56;4990461;28;20035;-37
2022/09/25 09:52:58;;;;;;;6.57;1.20;;;;;;;18.70;62.12;101589.72;4990676;28;20037;-38
2022/09/25 09:55:40;;;;;;;7.47;1.27;;;;;;;18.56;60.03;101575.31;4990039;28;20121;-37
2022/09/25 09:58:31;;;;;;;16.38;1.42;;;;;;;18.61;60.32;101575.47;4991352;28;20082;-40
2022/09/25 10:00:57;;;;;;;7.43;1.08;;;;;;;18.37;60.38;101577.03;4987306;28;20050;-39
2022/09/25 10:03:26;;;;;;;6.68;1.77;;;;;;;18.18;60.14;101573.34;4992227;28;20023;-39
2022/09/25 10:05:57;;;;;;;10.50;1.50;;;;;;;17.81;60.93;101577.63;4975405;28;20630;-39
2022/09/25 10:08:22;;;;;;;11.88;1.25;;;;;;;17.52;62.00;101570.72;5001271;28;20515;-39
2022/09/25 10:10:54;;;;;;;4.80;0.90;;;;;;;17.48;63.20;101578.50;4994244;28;20038;-39
2022/09/25 10:13:23;;;;;;;11.05;1.40;;;;;;;17.40;63.87;101573.22;4976978;28;20034;-39
2022/09/25 10:15:52;;;;;;;8.15;1.40;;;;;;;17.22;62.96;101571.16;4982730;28;20035;-39
2022/09/25 10:18:20;;;;;;;7.25;0.98;;;;;;;17.07;62.30;101573.22;4995195;28;20118;-39
2022/09/25 10:20:56;;;;;;;3.97;0.90;;;;;;;16.88;62.90;101570.25;4993823;28;20122;-39
2022/09/25 10:23:37;;;;;;;3.17;0.73;;;;;;;16.85;63.88;101565.25;4977664;28;20034;-39
2022/09/25 10:26:22;;;;;;;7.30;1.00;;;;;;;16.88;64.03;101567.53;4977707;28;20121;-39
2022/09/25 10:28:47;;;;;;;5.75;1.17;;;;;;;16.82;63.66;101564.78;4993534;28;20093;-40
2022/09/25 10:31:14;;;;;;;5.70;0.77;;;;;;;16.76;63.10;101565.59;4995162;28;20022;-38
2022/09/25 10:33:39;;;;;;;3.22;1.15;;;;;;;16.77;61.98;101561.81;4994086;28;20037;-39
2022/09/25 10:36:05;;;;;;;5.38;1.13;;;;;;;16.75;61.54;101553.06;4995325;28;20094;-39
2022/09/25 10:38:38;;;;;;;3.58;1.00;;;;;;;16.76;63.02;101554.72;4993089;28;20049;-39
2022/09/25 10:41:19;;;;;;;6.22;0.80;;;;;;;16.77;63.47;101553.66;4990668;28;20397;-40
2022/09/25 10:43:53;;;;;;;4.70;1.10;;;;;;;16.91;64.31;101551.88;4995133;28;20061;-39
2022/09/25 10:52:13;;;;;;;8.40;0.98;;;;;;;17.72;61.68;101549.78;4995180;28;20088;-38
2022/09/25 10:54:39;;;;;;;9.75;1.05;;;;;;;17.80;60.83;101553.31;4994723;28;20057;-39
2022/09/25 10:57:25;;;;;;;4.43;0.90;;;;;;;17.93;61.34;101556.88;4995008;28;20022;-39
2022/09/25 10:59:51;;;;;;;3.38;0.60;;;;;;;17.97;59.98;101543.66;4991216;28;20026;-39
2022/09/25 11:02:30;;;;;;;8.32;1.05;;;;;;;17.90;62.44;101540.13;4994665;28;20077;-39
2022/09/25 11:04:56;;;;;;;7.50;0.90;;;;;;;17.75;58.51;101543.06;4994380;28;20085;-40
2022/09/25 11:07:26;;;;;;;6.35;2.10;;;;;;;17.84;57.91;101540.97;4992970;28;20504;-39
2022/09/25 11:09:51;;;;;;;8.80;4.65;;;;;;;18.05;58.67;101537.16;4994865;28;20491;-39
2022/09/25 11:12:22;;;;;;;5.70;1.48;;;;;;;18.25;59.54;101528.91;4994245;28;20035;-40
2022/09/25 11:15:20;;;;;;;6.90;1.00;;;;;;;18.82;56.99;101532.59;4996513;28;20033;-39
2022/09/25 11:17:49;;;;;;;2.42;0.50;;;;;;;19.08;56.99;101535.13;4993706;28;20054;-40
2022/09/25 11:20:15;;;;;;;4.68;0.98;;;;;;;19.15;58.23;101526.09;4991772;28;20022;-39
2022/09/25 11:22:43;;;;;;;7.68;0.70;;;;;;;19.53;55.47;101520.47;4999771;28;20068;-39
2022/09/25 11:25:16;;;;;;;2.53;0.60;;;;;;;19.53;54.19;101526.78;4993817;28;20026;-39
2022/09/25 11:27:49;;;;;;;4.25;0.55;;;;;;;19.78;52.33;101520.47;4977148;28;20053;-39
2022/09/25 11:30:18;;;;;;;3.75;0.75;;;;;;;19.68;50.34;101531.09;4994187;28;20130;-39
2022/09/25 11:32:47;;;;;;;7.68;0.63;;;;;;;19.52;50.45;101518.81;4993242;28;20176;-39
2022/09/25 11:35:15;;;;;;;5.47;0.80;;;;;;;19.61;49.73;101522.09;4993746;28;20096;-40
2022/09/25 11:38:14;;;;;;;3.85;0.57;;;;;;;19.66;49.15;101514.06;4993021;28;20033;-39
2022/09/25 11:41:11;;;;;;;3.85;0.75;;;;;;;19.50;51.86;101516.31;4973957;28;20031;-38
2022/09/25 11:43:57;;;;;;;1.15;0.60;;;;;;;19.18;49.89;101517.44;4990817;28;20038;-39
2022/09/25 11:46:36;;;;;;;1.42;0.40;;;;;;;19.44;49.79;101516.38;4966122;28;20102;-39